sensor_id;sensor_type;location;lat;lon;timestamp;temperature;humidity
13686;DHT22;6915;48.296;8.874;2024-03-25T00:01:55;2.30;99.90
13686;DHT22;6915;48.296;8.874;2024-03-25T00:04:21;2.10;99.90
13686;DHT22;6915;48.296;8.874;2024-03-25T00:06:48;2.10;99.90
13686;DHT22;6915;48.296;8.874;2024-03-25T00:09:16;2.20;99.90
13686;DHT22;6915;48.296;8.874;2024-03-25T00:11:43;2.10;99.90
13686;DHT22;6915;48.296;8.874;2024-03-25T00:14:09;2.00;99.90
13686;DHT22;6915;48.296;8.874;2024-03-25T00:16:36;2.00;99.90
13686;DHT22;6915;48.296;8.874;2024-03-25T00:19:02;2.00;99.90
13686;DHT22;6915;48.296;8.874;2024-03-25T00:21:29;1.90;99.90
13686;DHT22;6915;48.296;8.874;2024-03-25T00:23:55;1.90;99.90
13686;DHT22;6915;48.296;8.874;2024-03-25T00:26:24;1.90;99.90
13686;DHT22;6915;48.296;8.874;2024-03-25T00:28:50;1.90;99.90
13686;DHT22;6915;48.296;8.874;2024-03-25T00:31:16;1.90;99.90
13686;DHT22;6915;48.296;8.874;2024-03-25T00:33:42;1.90;99.90
13686;DHT22;6915;48.296;8.874;2024-03-25T00:36:10;1.90;99.90
13686;DHT22;6915;48.296;8.874;2024-03-25T00:38:36;1.90;99.90
13686;DHT22;6915;48.296;8.874;2024-03-25T00:41:03;2.10;99.90
13686;DHT22;6915;48.296;8.874;2024-03-25T00:43:30;1.90;99.90
13686;DHT22;6915;48.296;8.874;2024-03-25T00:45:57;1.90;99.90
13686;DHT22;6915;48.296;8.874;2024-03-25T00:48:23;2.00;99.90
13686;DHT22;6915;48.296;8.874;2024-03-25T00:50:50;1.90;99.90
13686;DHT22;6915;48.296;8.874;2024-03-25T00:53:16;1.90;99.90
13686;DHT22;6915;48.296;8.874;2024-03-25T00:55:43;2.00;99.90
13686;DHT22;6915;48.296;8.874;2024-03-25T00:58:09;2.00;99.90
13686;DHT22;6915;48.296;8.874;2024-03-25T01:00:38;1.80;99.90
13686;DHT22;6915;48.296;8.874;2024-03-25T01:03:04;1.80;99.90
13686;DHT22;6915;48.296;8.874;2024-03-25T01:05:31;1.70;99.90
13686;DHT22;6915;48.296;8.874;2024-03-25T01:07:57;1.70;99.90
13686;DHT22;6915;48.296;8.874;2024-03-25T01:10:24;1.80;99.90
13686;DHT22;6915;48.296;8.874;2024-03-25T01:12:50;1.70;99.90
13686;DHT22;6915;48.296;8.874;2024-03-25T01:15:17;1.70;99.90
13686;DHT22;6915;48.296;8.874;2024-03-25T01:17:44;1.70;99.90
13686;DHT22;6915;48.296;8.874;2024-03-25T01:20:11;1.70;99.90
13686;DHT22;6915;48.296;8.874;2024-03-25T01:22:37;1.70;99.90
13686;DHT22;6915;48.296;8.874;2024-03-25T01:25:04;1.70;99.90
13686;DHT22;6915;48.296;8.874;2024-03-25T01:27:32;1.60;99.90
13686;DHT22;6915;48.296;8.874;2024-03-25T01:29:59;1.70;99.90
13686;DHT22;6915;48.296;8.874;2024-03-25T01:32:26;1.80;99.90
13686;DHT22;6915;48.296;8.874;2024-03-25T01:34:54;1.70;99.90
13686;DHT22;6915;48.296;8.874;2024-03-25T01:37:20;1.60;99.90
13686;DHT22;6915;48.296;8.874;2024-03-25T01:39:47;1.70;99.90
13686;DHT22;6915;48.296;8.874;2024-03-25T01:42:13;1.40;99.90
13686;DHT22;6915;48.296;8.874;2024-03-25T01:44:41;1.30;99.90
13686;DHT22;6915;48.296;8.874;2024-03-25T01:47:07;1.20;99.90
13686;DHT22;6915;48.296;8.874;2024-03-25T01:49:34;1.20;99.90
13686;DHT22;6915;48.296;8.874;2024-03-25T01:52:02;1.20;99.90
13686;DHT22;6915;48.296;8.874;2024-03-25T01:54:29;1.30;99.90
13686;DHT22;6915;48.296;8.874;2024-03-25T01:56:55;1.50;99.90
13686;DHT22;6915;48.296;8.874;2024-03-25T01:59:23;1.20;99.90
13686;DHT22;6915;48.296;8.874;2024-03-25T02:01:50;1.20;99.90
13686;DHT22;6915;48.296;8.874;2024-03-25T02:04:17;1.20;99.90
13686;DHT22;6915;48.296;8.874;2024-03-25T02:06:44;1.10;99.90
13686;DHT22;6915;48.296;8.874;2024-03-25T02:09:13;1.20;99.90
13686;DHT22;6915;48.296;8.874;2024-03-25T02:11:39;1.10;99.90
13686;DHT22;6915;48.296;8.874;2024-03-25T02:14:07;1.00;99.90
13686;DHT22;6915;48.296;8.874;2024-03-25T02:16:33;1.00;99.90
13686;DHT22;6915;48.296;8.874;2024-03-25T02:19:01;1.00;99.90
13686;DHT22;6915;48.296;8.874;2024-03-25T02:21:27;1.10;99.90
13686;DHT22;6915;48.296;8.874;2024-03-25T02:23:56;1.00;99.90
13686;DHT22;6915;48.296;8.874;2024-03-25T02:26:26;1.00;99.90
13686;DHT22;6915;48.296;8.874;2024-03-25T02:28:53;0.90;99.90
13686;DHT22;6915;48.296;8.874;2024-03-25T02:31:19;1.00;99.90
13686;DHT22;6915;48.296;8.874;2024-03-25T02:33:46;0.90;99.90
13686;DHT22;6915;48.296;8.874;2024-03-25T02:36:12;0.90;99.90
13686;DHT22;6915;48.296;8.874;2024-03-25T02:38:38;0.80;99.90
13686;DHT22;6915;48.296;8.874;2024-03-25T02:41:04;0.80;99.90
13686;DHT22;6915;48.296;8.874;2024-03-25T02:43:33;0.90;99.90
13686;DHT22;6915;48.296;8.874;2024-03-25T02:45:59;0.60;99.90
13686;DHT22;6915;48.296;8.874;2024-03-25T02:48:26;0.70;99.90
13686;DHT22;6915;48.296;8.874;2024-03-25T02:50:52;0.40;99.90
13686;DHT22;6915;48.296;8.874;2024-03-25T02:53:19;0.40;99.90
13686;DHT22;6915;48.296;8.874;2024-03-25T02:55:45;0.40;99.90
13686;DHT22;6915;48.296;8.874;2024-03-25T02:58:12;0.40;99.90
13686;DHT22;6915;48.296;8.874;2024-03-25T03:00:39;0.40;99.90
13686;DHT22;6915;48.296;8.874;2024-03-25T03:03:06;0.30;99.90
13686;DHT22;6915;48.296;8.874;2024-03-25T03:05:32;0.20;99.90
13686;DHT22;6915;48.296;8.874;2024-03-25T03:08:00;0.30;99.90
13686;DHT22;6915;48.296;8.874;2024-03-25T03:10:26;0.30;99.90
13686;DHT22;6915;48.296;8.874;2024-03-25T03:12:53;0.40;99.90
13686;DHT22;6915;48.296;8.874;2024-03-25T03:15:19;0.70;99.90
13686;DHT22;6915;48.296;8.874;2024-03-25T03:17:47;0.60;99.90
13686;DHT22;6915;48.296;8.874;2024-03-25T03:20:13;0.40;99.90
13686;DHT22;6915;48.296;8.874;2024-03-25T03:22:40;0.60;99.90
13686;DHT22;6915;48.296;8.874;2024-03-25T03:25:06;0.50;99.90
13686;DHT22;6915;48.296;8.874;2024-03-25T03:27:33;0.40;99.90
13686;DHT22;6915;48.296;8.874;2024-03-25T03:29:59;0.30;99.90
13686;DHT22;6915;48.296;8.874;2024-03-25T03:32:26;0.20;99.90
13686;DHT22;6915;48.296;8.874;2024-03-25T03:34:54;0.10;99.90
13686;DHT22;6915;48.296;8.874;2024-03-25T03:37:21;-0.10;99.90
13686;DHT22;6915;48.296;8.874;2024-03-25T03:39:47;-0.10;99.90
13686;DHT22;6915;48.296;8.874;2024-03-25T03:42:14;-0.20;99.90
13686;DHT22;6915;48.296;8.874;2024-03-25T03:44:40;-0.20;99.90
13686;DHT22;6915;48.296;8.874;2024-03-25T03:47:06;-0.20;99.90
13686;DHT22;6915;48.296;8.874;2024-03-25T03:49:32;-0.20;99.90
13686;DHT22;6915;48.296;8.874;2024-03-25T03:52:00;-0.30;99.90
13686;DHT22;6915;48.296;8.874;2024-03-25T03:54:26;-0.30;99.90
13686;DHT22;6915;48.296;8.874;2024-03-25T03:56:54;-0.40;99.90
13686;DHT22;6915;48.296;8.874;2024-03-25T03:59:19;-0.30;99.90
13686;DHT22;6915;48.296;8.874;2024-03-25T04:01:46;-0.40;99.90
13686;DHT22;6915;48.296;8.874;2024-03-25T04:04:12;-0.50;99.90
13686;DHT22;6915;48.296;8.874;2024-03-25T04:06:39;-0.50;99.90
13686;DHT22;6915;48.296;8.874;2024-03-25T04:09:07;-0.60;99.90
13686;DHT22;6915;48.296;8.874;2024-03-25T04:11:35;-0.60;99.90
13686;DHT22;6915;48.296;8.874;2024-03-25T04:14:01;-0.70;99.90
13686;DHT22;6915;48.296;8.874;2024-03-25T04:16:28;-0.70;99.90
13686;DHT22;6915;48.296;8.874;2024-03-25T04:18:56;-0.60;99.90
13686;DHT22;6915;48.296;8.874;2024-03-25T04:21:23;-0.80;99.90
13686;DHT22;6915;48.296;8.874;2024-03-25T04:23:49;-0.70;99.90
13686;DHT22;6915;48.296;8.874;2024-03-25T04:26:17;-0.80;99.90
13686;DHT22;6915;48.296;8.874;2024-03-25T04:28:44;-0.80;99.90
13686;DHT22;6915;48.296;8.874;2024-03-25T04:31:10;-1.00;99.90
13686;DHT22;6915;48.296;8.874;2024-03-25T04:33:36;-0.90;99.90
13686;DHT22;6915;48.296;8.874;2024-03-25T04:36:03;-0.80;99.90
13686;DHT22;6915;48.296;8.874;2024-03-25T04:38:29;-0.90;99.90
13686;DHT22;6915;48.296;8.874;2024-03-25T04:40:55;-0.90;99.90
13686;DHT22;6915;48.296;8.874;2024-03-25T04:43:23;-0.90;99.90
13686;DHT22;6915;48.296;8.874;2024-03-25T04:45:49;-0.70;99.90
13686;DHT22;6915;48.296;8.874;2024-03-25T04:48:14;-0.60;99.90
13686;DHT22;6915;48.296;8.874;2024-03-25T04:50:40;-0.90;99.90
13686;DHT22;6915;48.296;8.874;2024-03-25T04:53:06;-0.80;99.90
13686;DHT22;6915;48.296;8.874;2024-03-25T04:55:32;-1.10;99.90
13686;DHT22;6915;48.296;8.874;2024-03-25T04:57:58;-1.10;99.90
13686;DHT22;6915;48.296;8.874;2024-03-25T05:00:26;-1.20;99.90
13686;DHT22;6915;48.296;8.874;2024-03-25T05:02:52;-1.10;99.90
13686;DHT22;6915;48.296;8.874;2024-03-25T05:05:18;-1.20;99.90
13686;DHT22;6915;48.296;8.874;2024-03-25T05:07:44;-1.20;99.90
13686;DHT22;6915;48.296;8.874;2024-03-25T05:10:10;-1.20;99.90
13686;DHT22;6915;48.296;8.874;2024-03-25T05:12:36;-1.20;99.90
13686;DHT22;6915;48.296;8.874;2024-03-25T05:15:02;-1.20;99.90
13686;DHT22;6915;48.296;8.874;2024-03-25T05:17:29;-1.20;99.90
13686;DHT22;6915;48.296;8.874;2024-03-25T05:19:55;-1.00;99.90
13686;DHT22;6915;48.296;8.874;2024-03-25T05:22:21;-1.20;99.90
13686;DHT22;6915;48.296;8.874;2024-03-25T05:24:47;-1.10;99.90
13686;DHT22;6915;48.296;8.874;2024-03-25T05:27:13;-1.00;99.90
13686;DHT22;6915;48.296;8.874;2024-03-25T05:29:39;-0.80;99.90
13686;DHT22;6915;48.296;8.874;2024-03-25T05:32:06;-0.50;99.90
13686;DHT22;6915;48.296;8.874;2024-03-25T05:34:33;-0.40;99.90
13686;DHT22;6915;48.296;8.874;2024-03-25T05:36:59;-0.40;99.90
13686;DHT22;6915;48.296;8.874;2024-03-25T05:39:25;-0.40;99.90
13686;DHT22;6915;48.296;8.874;2024-03-25T05:41:51;-0.30;99.90
13686;DHT22;6915;48.296;8.874;2024-03-25T05:44:17;-0.10;99.90
13686;DHT22;6915;48.296;8.874;2024-03-25T05:46:43;0.20;99.90
13686;DHT22;6915;48.296;8.874;2024-03-25T05:49:09;0.30;99.90
13686;DHT22;6915;48.296;8.874;2024-03-25T05:51:36;0.50;99.90
13686;DHT22;6915;48.296;8.874;2024-03-25T05:54:03;0.70;99.90
13686;DHT22;6915;48.296;8.874;2024-03-25T05:56:29;0.80;99.90
13686;DHT22;6915;48.296;8.874;2024-03-25T05:58:56;1.20;99.90
13686;DHT22;6915;48.296;8.874;2024-03-25T06:01:22;1.20;99.90
13686;DHT22;6915;48.296;8.874;2024-03-25T06:03:48;1.50;99.90
13686;DHT22;6915;48.296;8.874;2024-03-25T06:06:14;1.90;99.90
13686;DHT22;6915;48.296;8.874;2024-03-25T06:08:41;2.20;99.90
13686;DHT22;6915;48.296;8.874;2024-03-25T06:11:07;2.40;99.90
13686;DHT22;6915;48.296;8.874;2024-03-25T06:13:33;2.70;99.90
13686;DHT22;6915;48.296;8.874;2024-03-25T06:15:59;3.00;99.90
13686;DHT22;6915;48.296;8.874;2024-03-25T06:18:25;3.20;99.90
13686;DHT22;6915;48.296;8.874;2024-03-25T06:20:51;3.40;99.90
13686;DHT22;6915;48.296;8.874;2024-03-25T06:23:24;4.10;99.90
13686;DHT22;6915;48.296;8.874;2024-03-25T06:25:53;4.40;99.90
13686;DHT22;6915;48.296;8.874;2024-03-25T06:28:19;4.80;99.90
13686;DHT22;6915;48.296;8.874;2024-03-25T06:30:46;4.60;99.90
13686;DHT22;6915;48.296;8.874;2024-03-25T06:33:30;4.80;99.90
13686;DHT22;6915;48.296;8.874;2024-03-25T06:36:15;4.60;99.90
13686;DHT22;6915;48.296;8.874;2024-03-25T06:38:41;4.70;99.90
13686;DHT22;6915;48.296;8.874;2024-03-25T06:41:08;4.80;99.90
13686;DHT22;6915;48.296;8.874;2024-03-25T06:43:35;4.80;99.90
13686;DHT22;6915;48.296;8.874;2024-03-25T06:46:01;4.30;99.90
13686;DHT22;6915;48.296;8.874;2024-03-25T06:48:28;4.10;99.90
13686;DHT22;6915;48.296;8.874;2024-03-25T06:50:54;4.00;99.90
13686;DHT22;6915;48.296;8.874;2024-03-25T06:53:21;3.90;99.90
13686;DHT22;6915;48.296;8.874;2024-03-25T06:55:54;4.00;99.90
13686;DHT22;6915;48.296;8.874;2024-03-25T06:58:23;4.10;99.90
13686;DHT22;6915;48.296;8.874;2024-03-25T07:00:49;4.20;99.90
13686;DHT22;6915;48.296;8.874;2024-03-25T07:03:16;4.40;99.90
13686;DHT22;6915;48.296;8.874;2024-03-25T07:05:44;4.70;99.90
13686;DHT22;6915;48.296;8.874;2024-03-25T07:08:10;4.50;99.90
13686;DHT22;6915;48.296;8.874;2024-03-25T08:04:58;6.30;99.90
13686;DHT22;6915;48.296;8.874;2024-03-25T08:07:24;6.50;99.90
13686;DHT22;6915;48.296;8.874;2024-03-25T08:09:50;6.50;99.90
13686;DHT22;6915;48.296;8.874;2024-03-25T08:12:16;6.70;99.90
13686;DHT22;6915;48.296;8.874;2024-03-25T08:14:42;6.80;99.90
13686;DHT22;6915;48.296;8.874;2024-03-25T08:17:08;7.00;99.90
13686;DHT22;6915;48.296;8.874;2024-03-25T08:19:34;6.90;99.90
13686;DHT22;6915;48.296;8.874;2024-03-25T08:22:01;6.80;99.90
13686;DHT22;6915;48.296;8.874;2024-03-25T08:24:27;7.00;99.90
13686;DHT22;6915;48.296;8.874;2024-03-25T08:26:53;7.00;99.90
13686;DHT22;6915;48.296;8.874;2024-03-25T08:29:19;7.00;99.90
13686;DHT22;6915;48.296;8.874;2024-03-25T08:31:45;7.00;99.90
13686;DHT22;6915;48.296;8.874;2024-03-25T08:34:11;7.30;99.90
13686;DHT22;6915;48.296;8.874;2024-03-25T08:36:37;7.40;99.90
13686;DHT22;6915;48.296;8.874;2024-03-25T08:39:04;7.40;99.90
13686;DHT22;6915;48.296;8.874;2024-03-25T08:41:30;7.70;99.90
13686;DHT22;6915;48.296;8.874;2024-03-25T08:43:56;8.00;99.90
13686;DHT22;6915;48.296;8.874;2024-03-25T08:46:22;8.30;99.90
13686;DHT22;6915;48.296;8.874;2024-03-25T08:48:48;8.20;99.90
13686;DHT22;6915;48.296;8.874;2024-03-25T08:51:14;7.90;99.90
13686;DHT22;6915;48.296;8.874;2024-03-25T08:53:40;8.10;99.90
13686;DHT22;6915;48.296;8.874;2024-03-25T08:56:07;7.90;99.90
13686;DHT22;6915;48.296;8.874;2024-03-25T08:58:33;8.00;99.90
13686;DHT22;6915;48.296;8.874;2024-03-25T09:00:59;7.80;99.90
13686;DHT22;6915;48.296;8.874;2024-03-25T09:03:25;7.80;99.90
13686;DHT22;6915;48.296;8.874;2024-03-25T09:05:51;7.90;99.90
13686;DHT22;6915;48.296;8.874;2024-03-25T09:08:17;8.20;99.90
13686;DHT22;6915;48.296;8.874;2024-03-25T09:10:43;8.30;99.90
13686;DHT22;6915;48.296;8.874;2024-03-25T09:13:29;8.30;99.90
13686;DHT22;6915;48.296;8.874;2024-03-25T09:15:55;8.00;99.90
13686;DHT22;6915;48.296;8.874;2024-03-25T09:18:21;8.10;99.90
13686;DHT22;6915;48.296;8.874;2024-03-25T09:20:47;8.30;99.90
13686;DHT22;6915;48.296;8.874;2024-03-25T09:23:13;8.30;99.90
13686;DHT22;6915;48.296;8.874;2024-03-25T09:25:39;8.00;99.90
13686;DHT22;6915;48.296;8.874;2024-03-25T09:28:05;8.10;99.90
13686;DHT22;6915;48.296;8.874;2024-03-25T09:30:33;7.90;99.90
13686;DHT22;6915;48.296;8.874;2024-03-25T09:32:59;8.20;99.90
13686;DHT22;6915;48.296;8.874;2024-03-25T09:35:24;8.20;99.90
13686;DHT22;6915;48.296;8.874;2024-03-25T09:37:50;8.10;99.90
13686;DHT22;6915;48.296;8.874;2024-03-25T09:40:16;8.40;99.90
13686;DHT22;6915;48.296;8.874;2024-03-25T09:42:47;8.20;99.90
13686;DHT22;6915;48.296;8.874;2024-03-25T09:45:16;8.40;99.90
13686;DHT22;6915;48.296;8.874;2024-03-25T09:47:46;8.90;99.90
13686;DHT22;6915;48.296;8.874;2024-03-25T09:50:13;9.00;99.90
13686;DHT22;6915;48.296;8.874;2024-03-25T09:52:39;9.00;99.90
13686;DHT22;6915;48.296;8.874;2024-03-25T09:55:06;8.70;99.90
13686;DHT22;6915;48.296;8.874;2024-03-25T09:57:32;8.60;99.90
13686;DHT22;6915;48.296;8.874;2024-03-25T09:59:59;8.60;99.90
13686;DHT22;6915;48.296;8.874;2024-03-25T10:02:25;9.10;99.90
13686;DHT22;6915;48.296;8.874;2024-03-25T10:04:54;9.00;99.90
13686;DHT22;6915;48.296;8.874;2024-03-25T10:07:23;8.60;99.90
13686;DHT22;6915;48.296;8.874;2024-03-25T10:09:49;8.70;99.90
13686;DHT22;6915;48.296;8.874;2024-03-25T10:12:15;9.30;99.90
13686;DHT22;6915;48.296;8.874;2024-03-25T10:14:41;9.50;99.90
13686;DHT22;6915;48.296;8.874;2024-03-25T10:17:07;9.50;99.90
13686;DHT22;6915;48.296;8.874;2024-03-25T10:19:34;9.50;99.90
13686;DHT22;6915;48.296;8.874;2024-03-25T10:22:05;9.50;99.90
13686;DHT22;6915;48.296;8.874;2024-03-25T10:24:56;9.40;99.90
13686;DHT22;6915;48.296;8.874;2024-03-25T10:27:23;9.10;99.90
13686;DHT22;6915;48.296;8.874;2024-03-25T10:55:42;10.30;99.90
13686;DHT22;6915;48.296;8.874;2024-03-25T10:58:08;10.10;99.90
13686;DHT22;6915;48.296;8.874;2024-03-25T11:00:35;10.10;99.90
13686;DHT22;6915;48.296;8.874;2024-03-25T11:03:01;9.90;99.90
13686;DHT22;6915;48.296;8.874;2024-03-25T11:05:28;9.90;99.90
13686;DHT22;6915;48.296;8.874;2024-03-25T11:07:55;9.90;99.90
13686;DHT22;6915;48.296;8.874;2024-03-25T11:10:29;9.20;99.90
13686;DHT22;6915;48.296;8.874;2024-03-25T11:12:56;9.40;99.90
13686;DHT22;6915;48.296;8.874;2024-03-25T11:15:23;9.80;99.90
13686;DHT22;6915;48.296;8.874;2024-03-25T11:17:49;9.90;99.90
13686;DHT22;6915;48.296;8.874;2024-03-25T11:20:16;10.00;99.90
13686;DHT22;6915;48.296;8.874;2024-03-25T11:22:49;10.10;99.90
13686;DHT22;6915;48.296;8.874;2024-03-25T11:25:15;10.20;99.90
13686;DHT22;6915;48.296;8.874;2024-03-25T11:27:43;10.10;99.90
13686;DHT22;6915;48.296;8.874;2024-03-25T11:30:11;10.40;99.90
13686;DHT22;6915;48.296;8.874;2024-03-25T11:32:51;10.50;99.90
13686;DHT22;6915;48.296;8.874;2024-03-25T11:35:18;10.60;99.90
13686;DHT22;6915;48.296;8.874;2024-03-25T11:37:44;10.70;99.90
13686;DHT22;6915;48.296;8.874;2024-03-25T11:40:12;10.50;99.90
13686;DHT22;6915;48.296;8.874;2024-03-25T11:42:38;10.60;99.90
13686;DHT22;6915;48.296;8.874;2024-03-25T11:45:05;10.30;99.90
13686;DHT22;6915;48.296;8.874;2024-03-25T11:47:33;10.30;99.90
13686;DHT22;6915;48.296;8.874;2024-03-25T11:49:59;10.10;99.90
13686;DHT22;6915;48.296;8.874;2024-03-25T11:52:30;10.20;99.90
13686;DHT22;6915;48.296;8.874;2024-03-25T11:54:56;10.30;99.90
13686;DHT22;6915;48.296;8.874;2024-03-25T11:57:22;10.10;99.90
13686;DHT22;6915;48.296;8.874;2024-03-25T11:59:49;10.20;99.90
13686;DHT22;6915;48.296;8.874;2024-03-25T12:02:15;10.20;99.90
13686;DHT22;6915;48.296;8.874;2024-03-25T12:04:44;10.60;99.90
13686;DHT22;6915;48.296;8.874;2024-03-25T12:07:11;10.70;99.90
13686;DHT22;6915;48.296;8.874;2024-03-25T12:09:37;11.20;99.90
13686;DHT22;6915;48.296;8.874;2024-03-25T12:12:22;11.60;99.90
13686;DHT22;6915;48.296;8.874;2024-03-25T12:14:49;12.10;99.90
13686;DHT22;6915;48.296;8.874;2024-03-25T12:17:15;12.30;99.90
13686;DHT22;6915;48.296;8.874;2024-03-25T12:22:18;12.50;99.90
13686;DHT22;6915;48.296;8.874;2024-03-25T12:24:48;12.00;99.90
13686;DHT22;6915;48.296;8.874;2024-03-25T12:27:14;11.50;99.90
13686;DHT22;6915;48.296;8.874;2024-03-25T12:29:40;11.40;99.90
13686;DHT22;6915;48.296;8.874;2024-03-25T12:32:09;11.50;99.90
13686;DHT22;6915;48.296;8.874;2024-03-25T12:34:35;11.40;99.90
13686;DHT22;6915;48.296;8.874;2024-03-25T12:37:02;11.00;99.90
13686;DHT22;6915;48.296;8.874;2024-03-25T12:39:30;11.00;99.90
13686;DHT22;6915;48.296;8.874;2024-03-25T12:41:56;11.20;99.90
13686;DHT22;6915;48.296;8.874;2024-03-25T12:44:23;11.20;99.90
13686;DHT22;6915;48.296;8.874;2024-03-25T12:47:06;11.40;99.90
13686;DHT22;6915;48.296;8.874;2024-03-25T12:49:32;11.40;99.90
13686;DHT22;6915;48.296;8.874;2024-03-25T12:51:58;11.20;99.90
13686;DHT22;6915;48.296;8.874;2024-03-25T12:54:24;10.80;99.90
13686;DHT22;6915;48.296;8.874;2024-03-25T12:56:52;11.00;99.90
13686;DHT22;6915;48.296;8.874;2024-03-25T12:59:18;11.10;99.90
13686;DHT22;6915;48.296;8.874;2024-03-25T13:01:44;11.20;99.90
13686;DHT22;6915;48.296;8.874;2024-03-25T13:04:10;11.70;99.90
13686;DHT22;6915;48.296;8.874;2024-03-25T13:06:36;12.10;99.90
13686;DHT22;6915;48.296;8.874;2024-03-25T13:09:02;12.60;99.90
13686;DHT22;6915;48.296;8.874;2024-03-25T13:11:28;12.90;99.90
13686;DHT22;6915;48.296;8.874;2024-03-25T13:13:56;12.70;99.90
13686;DHT22;6915;48.296;8.874;2024-03-25T13:16:22;12.50;99.90
13686;DHT22;6915;48.296;8.874;2024-03-25T13:18:48;12.30;99.90
13686;DHT22;6915;48.296;8.874;2024-03-25T13:21:14;12.00;99.90
13686;DHT22;6915;48.296;8.874;2024-03-25T13:23:40;12.20;99.90
13686;DHT22;6915;48.296;8.874;2024-03-25T13:26:06;11.90;99.90
13686;DHT22;6915;48.296;8.874;2024-03-25T13:28:32;12.20;99.90
13686;DHT22;6915;48.296;8.874;2024-03-25T13:31:00;12.40;99.90
13686;DHT22;6915;48.296;8.874;2024-03-25T13:33:26;12.60;99.90
13686;DHT22;6915;48.296;8.874;2024-03-25T13:35:53;12.50;68.20
13686;DHT22;6915;48.296;8.874;2024-03-25T13:38:19;12.60;51.10
13686;DHT22;6915;48.296;8.874;2024-03-25T13:40:45;13.00;99.90
13686;DHT22;6915;48.296;8.874;2024-03-25T13:43:11;13.40;99.90
13686;DHT22;6915;48.296;8.874;2024-03-25T13:45:46;13.30;52.30
13686;DHT22;6915;48.296;8.874;2024-03-25T13:48:15;13.40;46.40
13686;DHT22;6915;48.296;8.874;2024-03-25T13:50:41;13.00;64.60
13686;DHT22;6915;48.296;8.874;2024-03-25T13:53:08;12.50;88.80
13686;DHT22;6915;48.296;8.874;2024-03-25T13:55:35;12.80;72.60
13686;DHT22;6915;48.296;8.874;2024-03-25T13:58:01;12.90;52.30
13686;DHT22;6915;48.296;8.874;2024-03-25T14:00:28;13.20;64.20
13686;DHT22;6915;48.296;8.874;2024-03-25T14:02:56;12.90;52.20
13686;DHT22;6915;48.296;8.874;2024-03-25T14:05:24;12.40;59.60
13686;DHT22;6915;48.296;8.874;2024-03-25T14:07:50;12.60;80.20
13686;DHT22;6915;48.296;8.874;2024-03-25T14:10:16;12.60;55.10
13686;DHT22;6915;48.296;8.874;2024-03-25T14:12:44;12.60;72.50
13686;DHT22;6915;48.296;8.874;2024-03-25T15:58:40;12.10;51.60
13686;DHT22;6915;48.296;8.874;2024-03-25T16:01:06;11.80;57.80
13686;DHT22;6915;48.296;8.874;2024-03-25T16:03:32;11.80;46.60
13686;DHT22;6915;48.296;8.874;2024-03-25T16:05:59;12.00;54.30
13686;DHT22;6915;48.296;8.874;2024-03-25T20:05:57;4.30;99.90
13686;DHT22;6915;48.296;8.874;2024-03-25T20:08:23;4.40;99.90
13686;DHT22;6915;48.296;8.874;2024-03-25T20:10:49;4.50;99.90
13686;DHT22;6915;48.296;8.874;2024-03-25T20:13:15;4.60;99.90
13686;DHT22;6915;48.296;8.874;2024-03-25T20:15:43;4.40;99.90
13686;DHT22;6915;48.296;8.874;2024-03-25T20:18:09;4.50;99.90
13686;DHT22;6915;48.296;8.874;2024-03-25T20:20:35;4.50;99.90
13686;DHT22;6915;48.296;8.874;2024-03-25T20:23:02;4.60;99.90
13686;DHT22;6915;48.296;8.874;2024-03-25T20:25:28;4.40;99.90
13686;DHT22;6915;48.296;8.874;2024-03-25T20:27:54;4.40;99.90
13686;DHT22;6915;48.296;8.874;2024-03-25T20:30:20;4.50;99.90
13686;DHT22;6915;48.296;8.874;2024-03-25T20:32:46;4.30;99.90
13686;DHT22;6915;48.296;8.874;2024-03-25T20:35:12;4.40;99.90
13686;DHT22;6915;48.296;8.874;2024-03-25T20:37:38;4.20;99.90
13686;DHT22;6915;48.296;8.874;2024-03-25T20:40:06;4.40;99.90
13686;DHT22;6915;48.296;8.874;2024-03-25T20:42:32;4.30;99.90
13686;DHT22;6915;48.296;8.874;2024-03-25T20:44:58;4.30;99.90
13686;DHT22;6915;48.296;8.874;2024-03-25T20:47:24;4.30;99.90
13686;DHT22;6915;48.296;8.874;2024-03-25T20:49:50;4.30;99.90
13686;DHT22;6915;48.296;8.874;2024-03-25T20:52:16;4.40;99.90
13686;DHT22;6915;48.296;8.874;2024-03-25T20:54:42;4.30;99.90
13686;DHT22;6915;48.296;8.874;2024-03-25T20:57:09;4.30;99.90
13686;DHT22;6915;48.296;8.874;2024-03-25T20:59:36;4.10;99.90
13686;DHT22;6915;48.296;8.874;2024-03-25T21:02:02;4.00;99.90
13686;DHT22;6915;48.296;8.874;2024-03-25T21:04:28;3.90;99.90
13686;DHT22;6915;48.296;8.874;2024-03-25T21:06:54;3.70;99.90
13686;DHT22;6915;48.296;8.874;2024-03-25T21:09:20;3.70;99.90
13686;DHT22;6915;48.296;8.874;2024-03-25T21:11:46;3.90;99.90
13686;DHT22;6915;48.296;8.874;2024-03-25T21:14:13;3.70;99.90
13686;DHT22;6915;48.296;8.874;2024-03-25T21:16:39;3.90;99.90
13686;DHT22;6915;48.296;8.874;2024-03-25T21:19:05;3.80;99.90
13686;DHT22;6915;48.296;8.874;2024-03-25T21:21:31;3.90;99.90
13686;DHT22;6915;48.296;8.874;2024-03-25T21:23:57;4.20;99.90
13686;DHT22;6915;48.296;8.874;2024-03-25T21:26:23;4.20;99.90
13686;DHT22;6915;48.296;8.874;2024-03-25T21:28:49;4.10;99.90
13686;DHT22;6915;48.296;8.874;2024-03-25T21:31:16;4.10;99.90
13686;DHT22;6915;48.296;8.874;2024-03-25T21:33:42;4.20;99.90
13686;DHT22;6915;48.296;8.874;2024-03-25T21:36:08;4.30;99.90
13686;DHT22;6915;48.296;8.874;2024-03-25T21:38:34;4.40;99.90
13686;DHT22;6915;48.296;8.874;2024-03-25T21:41:00;4.40;99.90
13686;DHT22;6915;48.296;8.874;2024-03-25T21:43:26;4.50;99.90
13686;DHT22;6915;48.296;8.874;2024-03-25T21:45:52;4.50;99.90
13686;DHT22;6915;48.296;8.874;2024-03-25T21:48:19;4.50;99.90
13686;DHT22;6915;48.296;8.874;2024-03-25T21:50:53;4.60;99.90
13686;DHT22;6915;48.296;8.874;2024-03-25T21:53:19;4.60;99.90
13686;DHT22;6915;48.296;8.874;2024-03-25T21:55:44;4.40;99.90
13686;DHT22;6915;48.296;8.874;2024-03-25T21:58:10;4.40;99.90
13686;DHT22;6915;48.296;8.874;2024-03-25T22:00:36;4.20;99.90
13686;DHT22;6915;48.296;8.874;2024-03-25T22:03:02;4.30;99.90
13686;DHT22;6915;48.296;8.874;2024-03-25T22:05:30;4.30;99.90
13686;DHT22;6915;48.296;8.874;2024-03-25T22:07:56;4.30;99.90
13686;DHT22;6915;48.296;8.874;2024-03-25T22:10:22;4.30;99.90
13686;DHT22;6915;48.296;8.874;2024-03-25T22:12:48;4.40;99.90
13686;DHT22;6915;48.296;8.874;2024-03-25T22:15:14;4.40;99.90
13686;DHT22;6915;48.296;8.874;2024-03-25T22:17:43;4.30;99.90
13686;DHT22;6915;48.296;8.874;2024-03-25T22:20:09;4.20;99.90
13686;DHT22;6915;48.296;8.874;2024-03-25T22:22:36;4.10;99.90
13686;DHT22;6915;48.296;8.874;2024-03-25T22:25:03;4.00;99.90
13686;DHT22;6915;48.296;8.874;2024-03-25T22:27:29;3.90;99.90
13686;DHT22;6915;48.296;8.874;2024-03-25T22:29:55;3.80;99.90
13686;DHT22;6915;48.296;8.874;2024-03-25T22:32:21;3.80;99.90
13686;DHT22;6915;48.296;8.874;2024-03-25T22:34:47;3.70;99.90
13686;DHT22;6915;48.296;8.874;2024-03-25T22:37:13;3.50;99.90
13686;DHT22;6915;48.296;8.874;2024-03-25T22:39:41;3.60;99.90
13686;DHT22;6915;48.296;8.874;2024-03-25T22:42:07;3.90;99.90
13686;DHT22;6915;48.296;8.874;2024-03-25T22:44:33;3.80;99.90
13686;DHT22;6915;48.296;8.874;2024-03-25T22:46:58;3.90;99.90
13686;DHT22;6915;48.296;8.874;2024-03-25T22:49:24;4.00;99.90
13686;DHT22;6915;48.296;8.874;2024-03-25T22:51:50;4.00;99.90
13686;DHT22;6915;48.296;8.874;2024-03-25T22:54:16;3.90;99.90
13686;DHT22;6915;48.296;8.874;2024-03-25T22:56:44;4.00;99.90
13686;DHT22;6915;48.296;8.874;2024-03-25T22:59:09;3.90;99.90